sensor_id;sensor_type;location;lat;lon;timestamp;pressure;altitude;pressure_sealevel;temperature;humidity
21401;BME280;18038;50.166;18.908;2023-02-18T00:02:47;97674.09;;;6.68;78.42
21401;BME280;18038;50.166;18.908;2023-02-18T00:06:10;97674.75;;;6.70;77.88
21401;BME280;18038;50.166;18.908;2023-02-18T00:09:20;97679.09;;;6.71;77.70
21401;BME280;18038;50.166;18.908;2023-02-18T00:12:30;97666.34;;;6.81;76.99
21401;BME280;18038;50.166;18.908;2023-02-18T00:15:38;97682.41;;;6.88;76.61
21401;BME280;18038;50.166;18.908;2023-02-18T00:18:48;97675.19;;;6.82;76.84
21401;BME280;18038;50.166;18.908;2023-02-18T00:21:58;97675.91;;;6.90;76.82
21401;BME280;18038;50.166;18.908;2023-02-18T00:25:05;97673.34;;;6.82;77.12
21401;BME280;18038;50.166;18.908;2023-02-18T00:28:12;97686.09;;;6.87;76.81
21401;BME280;18038;50.166;18.908;2023-02-18T00:31:21;97687.66;;;6.96;76.44
21401;BME280;18038;50.166;18.908;2023-02-18T00:34:33;97697.53;;;6.87;76.31
21401;BME280;18038;50.166;18.908;2023-02-18T00:37:43;97695.59;;;6.96;75.24
21401;BME280;18038;50.166;18.908;2023-02-18T00:40:52;97714.41;;;7.09;75.27
21401;BME280;18038;50.166;18.908;2023-02-18T00:43:58;97732.28;;;7.15;73.80
21401;BME280;18038;50.166;18.908;2023-02-18T00:47:07;97732.03;;;7.25;73.16
21401;BME280;18038;50.166;18.908;2023-02-18T00:50:18;97759.00;;;7.37;73.16
21401;BME280;18038;50.166;18.908;2023-02-18T00:53:29;97774.16;;;7.28;74.02
21401;BME280;18038;50.166;18.908;2023-02-18T00:56:38;97775.25;;;7.19;75.78
21401;BME280;18038;50.166;18.908;2023-02-18T00:59:46;97789.72;;;7.16;76.86
21401;BME280;18038;50.166;18.908;2023-02-18T01:02:52;97784.47;;;6.85;77.31
21401;BME280;18038;50.166;18.908;2023-02-18T01:06:01;97771.13;;;6.70;78.79
21401;BME280;18038;50.166;18.908;2023-02-18T01:09:12;97779.84;;;6.56;77.99
21401;BME280;18038;50.166;18.908;2023-02-18T01:12:19;97789.34;;;6.50;77.79
21401;BME280;18038;50.166;18.908;2023-02-18T01:15:25;97784.34;;;6.55;76.25
21401;BME280;18038;50.166;18.908;2023-02-18T01:18:32;97797.66;;;6.47;75.65
21401;BME280;18038;50.166;18.908;2023-02-18T01:21:39;97797.50;;;6.41;75.42
21401;BME280;18038;50.166;18.908;2023-02-18T01:24:48;97796.63;;;6.48;75.24
21401;BME280;18038;50.166;18.908;2023-02-18T01:27:54;97786.22;;;6.47;74.24
21401;BME280;18038;50.166;18.908;2023-02-18T01:31:06;97789.34;;;6.50;72.72
21401;BME280;18038;50.166;18.908;2023-02-18T01:34:13;97789.84;;;6.46;70.90
21401;BME280;18038;50.166;18.908;2023-02-18T01:37:23;97812.88;;;6.53;69.46
21401;BME280;18038;50.166;18.908;2023-02-18T01:40:31;97804.38;;;6.58;68.46
21401;BME280;18038;50.166;18.908;2023-02-18T01:43:38;97814.66;;;6.61;67.68
21401;BME280;18038;50.166;18.908;2023-02-18T01:46:45;97804.38;;;6.58;67.16
21401;BME280;18038;50.166;18.908;2023-02-18T01:49:52;97805.22;;;6.59;67.20
21401;BME280;18038;50.166;18.908;2023-02-18T01:52:59;97816.06;;;6.72;67.23
21401;BME280;18038;50.166;18.908;2023-02-18T01:56:23;97811.84;;;6.63;67.09
21401;BME280;18038;50.166;18.908;2023-02-18T01:59:37;97806.53;;;6.54;67.02
21401;BME280;18038;50.166;18.908;2023-02-18T02:02:50;97795.31;;;6.52;66.93
21401;BME280;18038;50.166;18.908;2023-02-18T02:06:08;97808.38;;;6.54;67.11
21401;BME280;18038;50.166;18.908;2023-02-18T02:09:29;97798.97;;;6.43;66.91
21401;BME280;18038;50.166;18.908;2023-02-18T02:12:55;97791.69;;;6.45;66.99
21401;BME280;18038;50.166;18.908;2023-02-18T02:16:11;97799.03;;;6.35;67.44
21401;BME280;18038;50.166;18.908;2023-02-18T02:20:01;97792.75;;;6.28;67.83
21401;BME280;18038;50.166;18.908;2023-02-18T02:23:45;97792.38;;;6.00;68.15
21401;BME280;18038;50.166;18.908;2023-02-18T02:27:25;97792.25;;;5.85;69.07
21401;BME280;18038;50.166;18.908;2023-02-18T02:31:09;97812.13;;;5.97;69.32
21401;BME280;18038;50.166;18.908;2023-02-18T02:34:49;97805.00;;;5.89;70.39
21401;BME280;18038;50.166;18.908;2023-02-18T02:38:06;97816.94;;;5.85;70.48
21401;BME280;18038;50.166;18.908;2023-02-18T02:41:30;97812.66;;;5.84;70.65
21401;BME280;18038;50.166;18.908;2023-02-18T02:44:53;97813.47;;;5.85;71.21
21401;BME280;18038;50.166;18.908;2023-02-18T02:48:19;97811.31;;;5.80;71.65
21401;BME280;18038;50.166;18.908;2023-02-18T02:51:43;97822.25;;;5.77;72.41
21401;BME280;18038;50.166;18.908;2023-02-18T02:54:54;97810.84;;;5.77;72.73
21401;BME280;18038;50.166;18.908;2023-02-18T02:58:04;97812.69;;;5.68;73.22
21401;BME280;18038;50.166;18.908;2023-02-18T03:01:25;97826.09;;;5.66;73.04
21401;BME280;18038;50.166;18.908;2023-02-18T03:04:56;97819.63;;;5.69;72.77
21401;BME280;18038;50.166;18.908;2023-02-18T03:08:29;97815.16;;;5.61;72.71
21401;BME280;18038;50.166;18.908;2023-02-18T03:11:55;97813.88;;;5.57;72.77
21401;BME280;18038;50.166;18.908;2023-02-18T03:15:20;97817.16;;;5.67;72.21
21401;BME280;18038;50.166;18.908;2023-02-18T03:18:45;97821.13;;;5.72;72.59
21401;BME280;18038;50.166;18.908;2023-02-18T03:22:00;97825.28;;;5.66;72.31
21401;BME280;18038;50.166;18.908;2023-02-18T03:25:18;97834.03;;;5.75;72.68
21401;BME280;18038;50.166;18.908;2023-02-18T03:28:35;97831.06;;;5.69;72.37
21401;BME280;18038;50.166;18.908;2023-02-18T03:31:49;97835.53;;;5.69;71.78
21401;BME280;18038;50.166;18.908;2023-02-18T03:35:04;97836.56;;;5.60;72.17
21401;BME280;18038;50.166;18.908;2023-02-18T03:38:21;97845.81;;;5.64;71.14
21401;BME280;18038;50.166;18.908;2023-02-18T03:41:43;97852.59;;;5.66;68.56
21401;BME280;18038;50.166;18.908;2023-02-18T03:44:49;97857.56;;;5.61;68.40
21401;BME280;18038;50.166;18.908;2023-02-18T03:47:57;97849.28;;;5.64;66.27
21401;BME280;18038;50.166;18.908;2023-02-18T03:51:16;97849.59;;;5.61;62.74
21401;BME280;18038;50.166;18.908;2023-02-18T03:54:25;97851.91;;;5.64;63.01
21401;BME280;18038;50.166;18.908;2023-02-18T03:57:38;97860.53;;;5.66;64.22
21401;BME280;18038;50.166;18.908;2023-02-18T04:00:45;97853.59;;;5.57;62.93
21401;BME280;18038;50.166;18.908;2023-02-18T04:03:55;97871.97;;;5.59;60.03
21401;BME280;18038;50.166;18.908;2023-02-18T04:07:03;97865.19;;;5.56;55.00
21401;BME280;18038;50.166;18.908;2023-02-18T04:10:21;97863.69;;;5.62;55.69
21401;BME280;18038;50.166;18.908;2023-02-18T04:13:31;97878.75;;;5.53;53.75
21401;BME280;18038;50.166;18.908;2023-02-18T04:16:37;97881.41;;;5.53;54.01
21401;BME280;18038;50.166;18.908;2023-02-18T04:19:44;97886.91;;;5.52;53.87
21401;BME280;18038;50.166;18.908;2023-02-18T04:22:50;97885.69;;;5.46;54.20
21401;BME280;18038;50.166;18.908;2023-02-18T04:25:57;97888.66;;;5.43;54.59
21401;BME280;18038;50.166;18.908;2023-02-18T04:29:05;97890.50;;;5.34;55.02
21401;BME280;18038;50.166;18.908;2023-02-18T04:32:12;97893.63;;;5.21;55.56
21401;BME280;18038;50.166;18.908;2023-02-18T04:35:18;97904.22;;;5.21;54.89
21401;BME280;18038;50.166;18.908;2023-02-18T04:38:25;97892.59;;;5.14;54.98
21401;BME280;18038;50.166;18.908;2023-02-18T04:41:31;97895.09;;;5.08;53.94
21401;BME280;18038;50.166;18.908;2023-02-18T04:44:40;97890.59;;;5.00;50.22
21401;BME280;18038;50.166;18.908;2023-02-18T04:47:48;97886.16;;;5.09;49.55
21401;BME280;18038;50.166;18.908;2023-02-18T04:50:55;97892.78;;;5.13;48.67
21401;BME280;18038;50.166;18.908;2023-02-18T04:54:01;97900.88;;;5.11;48.42
21401;BME280;18038;50.166;18.908;2023-02-18T04:57:09;97903.38;;;5.05;48.00
21401;BME280;18038;50.166;18.908;2023-02-18T05:00:19;97913.13;;;5.04;47.76
21401;BME280;18038;50.166;18.908;2023-02-18T05:03:26;97906.50;;;5.00;47.50
21401;BME280;18038;50.166;18.908;2023-02-18T05:06:32;97901.53;;;4.97;47.98
21401;BME280;18038;50.166;18.908;2023-02-18T05:09:41;97903.97;;;4.82;47.76
21401;BME280;18038;50.166;18.908;2023-02-18T05:12:47;97908.28;;;4.83;48.39
21401;BME280;18038;50.166;18.908;2023-02-18T05:15:56;97919.66;;;4.75;49.32
21401;BME280;18038;50.166;18.908;2023-02-18T05:19:03;97915.16;;;4.68;49.31
21401;BME280;18038;50.166;18.908;2023-02-18T05:22:09;97910.00;;;4.58;48.94
21401;BME280;18038;50.166;18.908;2023-02-18T05:25:15;97907.03;;;4.61;48.07
21401;BME280;18038;50.166;18.908;2023-02-18T05:28:23;97912.03;;;4.64;47.86
21401;BME280;18038;50.166;18.908;2023-02-18T05:31:31;97894.81;;;4.68;47.72
21401;BME280;18038;50.166;18.908;2023-02-18T05:34:40;97899.66;;;4.73;47.80
21401;BME280;18038;50.166;18.908;2023-02-18T05:37:46;97898.16;;;4.70;48.12
21401;BME280;18038;50.166;18.908;2023-02-18T05:40:54;97906.44;;;4.75;47.00
21401;BME280;18038;50.166;18.908;2023-02-18T05:44:01;97912.41;;;4.77;46.72
21401;BME280;18038;50.166;18.908;2023-02-18T05:47:23;97910.75;;;4.85;47.69
21401;BME280;18038;50.166;18.908;2023-02-18T05:50:29;97920.00;;;4.80;48.21
21401;BME280;18038;50.166;18.908;2023-02-18T05:53:36;97927.63;;;4.84;48.43
21401;BME280;18038;50.166;18.908;2023-02-18T05:56:42;97918.00;;;4.82;48.27
21401;BME280;18038;50.166;18.908;2023-02-18T05:59:49;97922.00;;;4.87;48.92
21401;BME280;18038;50.166;18.908;2023-02-18T06:02:58;97918.69;;;4.85;49.32
21401;BME280;18038;50.166;18.908;2023-02-18T06:06:06;97919.84;;;4.90;49.37
21401;BME280;18038;50.166;18.908;2023-02-18T06:09:13;97918.09;;;4.99;50.48
21401;BME280;18038;50.166;18.908;2023-02-18T06:12:19;97925.81;;;4.92;48.80
21401;BME280;18038;50.166;18.908;2023-02-18T06:15:25;97924.53;;;4.96;47.48
21401;BME280;18038;50.166;18.908;2023-02-18T06:18:35;97922.06;;;5.11;46.83
21401;BME280;18038;50.166;18.908;2023-02-18T06:21:41;97920.56;;;5.17;47.02
21401;BME280;18038;50.166;18.908;2023-02-18T06:24:48;97921.09;;;5.20;47.02
21401;BME280;18038;50.166;18.908;2023-02-18T06:27:54;97928.56;;;5.25;47.94
21401;BME280;18038;50.166;18.908;2023-02-18T06:31:01;97927.06;;;5.31;48.35
21401;BME280;18038;50.166;18.908;2023-02-18T06:34:09;97923.75;;;5.29;48.86
21401;BME280;18038;50.166;18.908;2023-02-18T06:37:16;97931.84;;;5.27;48.19
21401;BME280;18038;50.166;18.908;2023-02-18T06:40:22;97917.31;;;5.39;47.70
21401;BME280;18038;50.166;18.908;2023-02-18T06:43:29;97927.75;;;5.41;47.74
21401;BME280;18038;50.166;18.908;2023-02-18T06:46:35;97930.44;;;5.49;47.35
21401;BME280;18038;50.166;18.908;2023-02-18T06:49:45;97934.69;;;5.42;48.03
21401;BME280;18038;50.166;18.908;2023-02-18T06:52:51;97925.97;;;5.50;48.44
21401;BME280;18038;50.166;18.908;2023-02-18T06:55:57;97945.00;;;5.53;47.55
21401;BME280;18038;50.166;18.908;2023-02-18T06:59:03;97947.28;;;5.48;45.56
21401;BME280;18038;50.166;18.908;2023-02-18T07:02:12;97938.88;;;5.61;45.36
21401;BME280;18038;50.166;18.908;2023-02-18T07:05:20;97957.41;;;5.61;46.08
21401;BME280;18038;50.166;18.908;2023-02-18T07:08:27;97954.63;;;5.54;45.81
21401;BME280;18038;50.166;18.908;2023-02-18T07:11:34;97953.47;;;5.65;45.56
21401;BME280;18038;50.166;18.908;2023-02-18T07:14:41;97954.91;;;5.59;46.37
21401;BME280;18038;50.166;18.908;2023-02-18T07:17:47;97942.97;;;5.47;46.13
21401;BME280;18038;50.166;18.908;2023-02-18T07:20:56;97962.56;;;5.62;45.48
21401;BME280;18038;50.166;18.908;2023-02-18T07:24:03;97960.25;;;5.67;45.85
21401;BME280;18038;50.166;18.908;2023-02-18T07:27:10;97957.09;;;5.64;45.75
21401;BME280;18038;50.166;18.908;2023-02-18T07:30:17;97952.78;;;5.63;45.15
21401;BME280;18038;50.166;18.908;2023-02-18T07:33:25;97958.56;;;5.66;44.90
21401;BME280;18038;50.166;18.908;2023-02-18T07:36:33;97959.06;;;5.54;44.99
21401;BME280;18038;50.166;18.908;2023-02-18T07:39:42;97959.25;;;5.68;44.64
21401;BME280;18038;50.166;18.908;2023-02-18T07:42:48;97960.75;;;5.63;44.62
21401;BME280;18038;50.166;18.908;2023-02-18T07:45:55;97972.50;;;5.68;45.34
21401;BME280;18038;50.166;18.908;2023-02-18T07:49:01;97968.34;;;5.66;45.77
21401;BME280;18038;50.166;18.908;2023-02-18T07:52:10;97968.19;;;5.76;45.81
21401;BME280;18038;50.166;18.908;2023-02-18T07:55:17;97985.25;;;5.73;45.54
21401;BME280;18038;50.166;18.908;2023-02-18T07:58:27;97987.72;;;5.66;45.96
21401;BME280;18038;50.166;18.908;2023-02-18T08:01:34;97978.63;;;5.77;46.11
21401;BME280;18038;50.166;18.908;2023-02-18T08:04:41;97969.03;;;5.76;46.53
21401;BME280;18038;50.166;18.908;2023-02-18T08:07:50;97976.63;;;5.71;46.20
21401;BME280;18038;50.166;18.908;2023-02-18T08:10:59;97973.31;;;5.69;46.14
21401;BME280;18038;50.166;18.908;2023-02-18T08:14:20;97974.47;;;5.75;47.26
21401;BME280;18038;50.166;18.908;2023-02-18T08:17:27;97984.59;;;5.63;47.37
21401;BME280;18038;50.166;18.908;2023-02-18T08:20:35;97976.13;;;5.59;46.84
21401;BME280;18038;50.166;18.908;2023-02-18T08:23:45;97977.31;;;5.65;47.31
21401;BME280;18038;50.166;18.908;2023-02-18T08:26:52;97973.50;;;5.67;47.54
21401;BME280;18038;50.166;18.908;2023-02-18T08:30:04;97955.28;;;5.73;47.78
21401;BME280;18038;50.166;18.908;2023-02-18T08:33:13;97958.56;;;5.75;47.52
21401;BME280;18038;50.166;18.908;2023-02-18T08:36:21;97954.09;;;5.75;47.94
21401;BME280;18038;50.166;18.908;2023-02-18T08:39:33;97958.41;;;5.93;47.72
21401;BME280;18038;50.166;18.908;2023-02-18T08:42:42;97970.16;;;5.98;47.92
21401;BME280;18038;50.166;18.908;2023-02-18T08:45:48;97972.69;;;5.92;48.50
21401;BME280;18038;50.166;18.908;2023-02-18T08:48:55;97963.38;;;5.87;48.79
21401;BME280;18038;50.166;18.908;2023-02-18T08:52:02;97954.25;;;5.98;48.55
21401;BME280;18038;50.166;18.908;2023-02-18T08:55:12;97959.56;;;5.98;49.00
21401;BME280;18038;50.166;18.908;2023-02-18T08:58:22;97973.81;;;6.13;48.91
21401;BME280;18038;50.166;18.908;2023-02-18T09:01:29;97970.81;;;6.17;48.69
21401;BME280;18038;50.166;18.908;2023-02-18T09:04:35;97973.78;;;6.30;49.42
21401;BME280;18038;50.166;18.908;2023-02-18T09:07:42;97974.28;;;6.25;48.82
21401;BME280;18038;50.166;18.908;2023-02-18T09:10:53;97966.81;;;6.29;49.17
21401;BME280;18038;50.166;18.908;2023-02-18T09:14:01;97965.50;;;6.25;49.82
21401;BME280;18038;50.166;18.908;2023-02-18T09:17:07;97950.94;;;6.04;49.56
21401;BME280;18038;50.166;18.908;2023-02-18T09:20:14;97961.53;;;6.04;50.07
21401;BME280;18038;50.166;18.908;2023-02-18T09:23:20;97961.88;;;6.18;49.62
21401;BME280;18038;50.166;18.908;2023-02-18T09:26:30;97971.78;;;6.32;49.97
21401;BME280;18038;50.166;18.908;2023-02-18T09:29:38;97965.69;;;6.23;49.73
21401;BME280;18038;50.166;18.908;2023-02-18T09:32:46;97968.66;;;6.20;51.00
21401;BME280;18038;50.166;18.908;2023-02-18T09:35:52;97971.16;;;6.13;51.07
21401;BME280;18038;50.166;18.908;2023-02-18T09:39:00;97961.59;;;6.52;51.07
21401;BME280;18038;50.166;18.908;2023-02-18T09:42:14;97948.03;;;6.55;50.09
21401;BME280;18038;50.166;18.908;2023-02-18T09:45:23;97945.50;;;6.62;50.41
21401;BME280;18038;50.166;18.908;2023-02-18T09:48:33;97939.88;;;6.56;50.15
21401;BME280;18038;50.166;18.908;2023-02-18T09:51:43;97971.66;;;6.73;50.89
21401;BME280;18038;50.166;18.908;2023-02-18T09:54:50;97943.03;;;6.52;48.20
21401;BME280;18038;50.166;18.908;2023-02-18T09:58:03;97941.88;;;6.63;47.56
21401;BME280;18038;50.166;18.908;2023-02-18T10:01:17;97936.59;;;6.46;47.75
21401;BME280;18038;50.166;18.908;2023-02-18T10:04:40;97938.25;;;6.47;47.66
21401;BME280;18038;50.166;18.908;2023-02-18T10:07:57;97939.28;;;6.30;48.26
21401;BME280;18038;50.166;18.908;2023-02-18T10:11:12;97942.78;;;6.22;48.36
21401;BME280;18038;50.166;18.908;2023-02-18T10:14:25;97939.47;;;6.20;48.12
21401;BME280;18038;50.166;18.908;2023-02-18T10:17:32;97931.69;;;6.19;48.81
21401;BME280;18038;50.166;18.908;2023-02-18T10:20:40;97936.19;;;6.10;48.71
21401;BME280;18038;50.166;18.908;2023-02-18T10:23:55;97935.72;;;5.90;49.90
21401;BME280;18038;50.166;18.908;2023-02-18T10:27:06;97938.72;;;5.79;51.80
21401;BME280;18038;50.166;18.908;2023-02-18T10:30:22;97955.59;;;5.78;52.62
21401;BME280;18038;50.166;18.908;2023-02-18T10:33:36;97950.59;;;5.42;56.02
21401;BME280;18038;50.166;18.908;2023-02-18T10:36:55;97947.06;;;5.17;57.21
21401;BME280;18038;50.166;18.908;2023-02-18T10:40:13;97953.19;;;5.09;57.83
21401;BME280;18038;50.166;18.908;2023-02-18T10:43:36;97956.13;;;5.06;60.46
21401;BME280;18038;50.166;18.908;2023-02-18T10:47:02;97945.41;;;4.65;62.70
21401;BME280;18038;50.166;18.908;2023-02-18T10:50:27;97947.75;;;4.68;64.49
21401;BME280;18038;50.166;18.908;2023-02-18T10:53:41;97930.53;;;4.64;65.25
21401;BME280;18038;50.166;18.908;2023-02-18T10:56:52;97939.00;;;4.76;66.16
21401;BME280;18038;50.166;18.908;2023-02-18T11:00:17;97923.44;;;4.30;66.18
21401;BME280;18038;50.166;18.908;2023-02-18T11:03:41;97933.84;;;4.06;67.15
21401;BME280;18038;50.166;18.908;2023-02-18T11:06:51;97930.19;;;3.99;68.17
21401;BME280;18038;50.166;18.908;2023-02-18T11:10:01;97921.16;;;3.83;69.11
21401;BME280;18038;50.166;18.908;2023-02-18T11:13:26;97918.72;;;3.64;69.59
21401;BME280;18038;50.166;18.908;2023-02-18T11:16:39;97912.13;;;3.68;70.48
21401;BME280;18038;50.166;18.908;2023-02-18T11:19:59;97907.59;;;3.78;71.15
21401;BME280;18038;50.166;18.908;2023-02-18T11:23:18;97909.72;;;3.75;72.25
21401;BME280;18038;50.166;18.908;2023-02-18T11:26:30;97902.63;;;3.75;72.34
21401;BME280;18038;50.166;18.908;2023-02-18T11:29:39;97898.47;;;3.73;72.81
21401;BME280;18038;50.166;18.908;2023-02-18T11:32:49;97884.56;;;3.70;73.96
21401;BME280;18038;50.166;18.908;2023-02-18T11:36:17;97878.50;;;3.52;74.28
21401;BME280;18038;50.166;18.908;2023-02-18T11:39:35;97869.66;;;3.61;74.84
21401;BME280;18038;50.166;18.908;2023-02-18T11:42:44;97861.63;;;3.71;75.77
21401;BME280;18038;50.166;18.908;2023-02-18T11:46:08;97847.31;;;3.82;75.43
21401;BME280;18038;50.166;18.908;2023-02-18T11:49:21;97836.56;;;3.75;74.83
21401;BME280;18038;50.166;18.908;2023-02-18T11:52:36;97823.63;;;3.64;74.64
21401;BME280;18038;50.166;18.908;2023-02-18T11:55:54;97822.53;;;3.75;75.38
21401;BME280;18038;50.166;18.908;2023-02-18T11:59:03;97812.78;;;3.75;75.24
21401;BME280;18038;50.166;18.908;2023-02-18T12:02:27;97814.34;;;3.86;74.67
21401;BME280;18038;50.166;18.908;2023-02-18T12:05:37;97807.44;;;3.93;74.71
21401;BME280;18038;50.166;18.908;2023-02-18T12:08:52;97797.59;;;4.03;74.73
21401;BME280;18038;50.166;18.908;2023-02-18T12:12:07;97794.16;;;4.19;73.72
21401;BME280;18038;50.166;18.908;2023-02-18T12:15:29;97790.38;;;4.22;73.74
21401;BME280;18038;50.166;18.908;2023-02-18T12:19:08;97784.63;;;4.43;74.44
21401;BME280;18038;50.166;18.908;2023-02-18T12:22:37;97759.88;;;4.44;73.37
21401;BME280;18038;50.166;18.908;2023-02-18T12:25:56;97753.59;;;4.53;73.94
21401;BME280;18038;50.166;18.908;2023-02-18T12:29:30;97748.84;;;4.65;74.88
21401;BME280;18038;50.166;18.908;2023-02-18T12:33:06;97744.03;;;4.68;74.09
21401;BME280;18038;50.166;18.908;2023-02-18T12:36:35;97721.56;;;4.64;73.44
21401;BME280;18038;50.166;18.908;2023-02-18T12:40:07;97724.34;;;4.63;72.95
21401;BME280;18038;50.166;18.908;2023-02-18T12:43:46;97704.00;;;4.55;73.72
21401;BME280;18038;50.166;18.908;2023-02-18T12:47:29;97677.91;;;4.68;73.63
21401;BME280;18038;50.166;18.908;2023-02-18T12:51:11;97668.13;;;4.69;73.98
21401;BME280;18038;50.166;18.908;2023-02-18T12:54:50;97650.13;;;4.48;73.48
21401;BME280;18038;50.166;18.908;2023-02-18T12:58:36;97633.59;;;4.54;73.30
21401;BME280;18038;50.166;18.908;2023-02-18T13:02:05;97643.66;;;4.67;74.25
21401;BME280;18038;50.166;18.908;2023-02-18T13:05:37;97649.59;;;4.77;73.42
21401;BME280;18038;50.166;18.908;2023-02-18T13:09:02;97633.25;;;4.81;73.01
21401;BME280;18038;50.166;18.908;2023-02-18T13:12:23;97630.59;;;4.81;73.56
21401;BME280;18038;50.166;18.908;2023-02-18T13:15:42;97628.44;;;4.77;73.63
21401;BME280;18038;50.166;18.908;2023-02-18T13:19:14;97619.06;;;4.42;73.52
21401;BME280;18038;50.166;18.908;2023-02-18T13:22:29;97605.81;;;4.50;73.40
21401;BME280;18038;50.166;18.908;2023-02-18T13:25:38;97608.97;;;4.37;74.60
21401;BME280;18038;50.166;18.908;2023-02-18T13:28:51;97594.78;;;4.30;74.81
21401;BME280;18038;50.166;18.908;2023-02-18T13:32:23;97600.69;;;4.40;74.59
21401;BME280;18038;50.166;18.908;2023-02-18T13:35:43;97584.03;;;4.23;75.59
21401;BME280;18038;50.166;18.908;2023-02-18T13:39:02;97561.03;;;3.75;77.35
21401;BME280;18038;50.166;18.908;2023-02-18T13:42:32;97561.09;;;2.98;81.72
21401;BME280;18038;50.166;18.908;2023-02-18T13:45:40;97565.22;;;3.00;82.52
21401;BME280;18038;50.166;18.908;2023-02-18T13:49:02;97552.19;;;3.33;81.89
21401;BME280;18038;50.166;18.908;2023-02-18T13:52:19;97542.44;;;3.34;80.90
21401;BME280;18038;50.166;18.908;2023-02-18T13:55:37;97536.47;;;3.23;81.36
21401;BME280;18038;50.166;18.908;2023-02-18T13:58:50;97527.41;;;2.92;83.34
21401;BME280;18038;50.166;18.908;2023-02-18T14:05:40;97519.47;;;3.18;81.45
21401;BME280;18038;50.166;18.908;2023-02-18T14:09:04;97502.78;;;2.75;83.03
21401;BME280;18038;50.166;18.908;2023-02-18T14:13:01;97493.63;;;2.53;85.04
21401;BME280;18038;50.166;18.908;2023-02-18T14:20:48;97486.09;;;2.66;85.28
21401;BME280;18038;50.166;18.908;2023-02-18T14:23:58;97461.69;;;2.64;85.53
21401;BME280;18038;50.166;18.908;2023-02-18T14:27:15;97456.44;;;2.64;85.78
21401;BME280;18038;50.166;18.908;2023-02-18T14:30:34;97445.06;;;2.64;85.96
21401;BME280;18038;50.166;18.908;2023-02-18T14:34:14;97429.75;;;2.67;86.67
21401;BME280;18038;50.166;18.908;2023-02-18T14:38:21;97425.91;;;2.53;87.47
21401;BME280;18038;50.166;18.908;2023-02-18T14:41:58;97409.44;;;2.59;88.28
21401;BME280;18038;50.166;18.908;2023-02-18T14:45:32;97404.69;;;2.63;88.13
21401;BME280;18038;50.166;18.908;2023-02-18T14:49:21;97398.88;;;2.59;88.71
21401;BME280;18038;50.166;18.908;2023-02-18T14:52:50;97393.13;;;2.56;89.75
21401;BME280;18038;50.166;18.908;2023-02-18T14:56:16;97390.16;;;2.59;90.19
21401;BME280;18038;50.166;18.908;2023-02-18T14:59:33;97364.16;;;2.64;90.46
21401;BME280;18038;50.166;18.908;2023-02-18T15:02:47;97366.31;;;2.77;91.12
21401;BME280;18038;50.166;18.908;2023-02-18T15:05:55;97359.56;;;2.82;91.18
21401;BME280;18038;50.166;18.908;2023-02-18T15:09:18;97354.81;;;2.94;91.48
21401;BME280;18038;50.166;18.908;2023-02-18T15:12:25;97335.53;;;3.02;91.52
21401;BME280;18038;50.166;18.908;2023-02-18T15:15:36;97337.72;;;3.23;92.01
21401;BME280;18038;50.166;18.908;2023-02-18T15:18:48;97329.97;;;3.38;92.51
21401;BME280;18038;50.166;18.908;2023-02-18T15:21:59;97316.25;;;3.59;93.34
21401;BME280;18038;50.166;18.908;2023-02-18T15:25:11;97311.91;;;3.82;92.99
21401;BME280;18038;50.166;18.908;2023-02-18T15:28:24;97303.25;;;3.97;93.33
21401;BME280;18038;50.166;18.908;2023-02-18T15:31:37;97297.22;;;4.19;92.95
21401;BME280;18038;50.166;18.908;2023-02-18T15:34:47;97286.41;;;4.37;93.28
21401;BME280;18038;50.166;18.908;2023-02-18T15:37:59;97282.47;;;4.64;93.49
21401;BME280;18038;50.166;18.908;2023-02-18T15:41:11;97284.13;;;4.88;93.53
21401;BME280;18038;50.166;18.908;2023-02-18T15:44:23;97272.50;;;5.12;93.53
21401;BME280;18038;50.166;18.908;2023-02-18T15:47:32;97264.41;;;5.29;93.07
21401;BME280;18038;50.166;18.908;2023-02-18T15:50:50;97278.84;;;5.49;92.63
21401;BME280;18038;50.166;18.908;2023-02-18T15:54:19;97267.41;;;5.63;91.78
21401;BME280;18038;50.166;18.908;2023-02-18T15:57:32;97266.88;;;5.68;91.00
21401;BME280;18038;50.166;18.908;2023-02-18T16:00:48;97262.47;;;5.75;90.95
21401;BME280;18038;50.166;18.908;2023-02-18T16:03:56;97249.53;;;5.65;90.33
21401;BME280;18038;50.166;18.908;2023-02-18T16:07:20;97258.56;;;5.86;89.91
21401;BME280;18038;50.166;18.908;2023-02-18T16:10:45;97259.47;;;5.93;89.27
21401;BME280;18038;50.166;18.908;2023-02-18T16:13:57;97260.00;;;6.03;89.27
21401;BME280;18038;50.166;18.908;2023-02-18T16:17:13;97262.00;;;6.01;89.21
21401;BME280;18038;50.166;18.908;2023-02-18T16:20:28;97260.28;;;6.08;88.80
21401;BME280;18038;50.166;18.908;2023-02-18T16:23:42;97254.22;;;6.15;88.52
21401;BME280;18038;50.166;18.908;2023-02-18T16:26:54;97254.50;;;6.20;88.03
21401;BME280;18038;50.166;18.908;2023-02-18T16:30:14;97256.78;;;6.23;87.69
21401;BME280;18038;50.166;18.908;2023-02-18T16:33:22;97258.69;;;6.29;87.14
21401;BME280;18038;50.166;18.908;2023-02-18T16:36:28;97246.63;;;6.26;87.09
21401;BME280;18038;50.166;18.908;2023-02-18T16:39:35;97258.31;;;6.32;86.31
21401;BME280;18038;50.166;18.908;2023-02-18T16:42:41;97265.53;;;6.38;86.01
21401;BME280;18038;50.166;18.908;2023-02-18T16:45:52;97260.84;;;6.40;85.74
21401;BME280;18038;50.166;18.908;2023-02-18T16:49:01;97266.44;;;6.30;86.05
21401;BME280;18038;50.166;18.908;2023-02-18T16:52:10;97279.81;;;6.37;85.89
21401;BME280;18038;50.166;18.908;2023-02-18T16:55:23;97287.66;;;6.45;85.73
21401;BME280;18038;50.166;18.908;2023-02-18T16:58:31;97281.53;;;6.45;85.64
21401;BME280;18038;50.166;18.908;2023-02-18T17:01:43;97280.78;;;6.36;85.47
21401;BME280;18038;50.166;18.908;2023-02-18T17:04:50;97299.63;;;6.41;85.40
21401;BME280;18038;50.166;18.908;2023-02-18T17:08:13;97293.34;;;6.42;85.00
21401;BME280;18038;50.166;18.908;2023-02-18T17:11:25;97299.44;;;6.43;84.04
21401;BME280;18038;50.166;18.908;2023-02-18T17:14:34;97300.63;;;6.55;84.29
21401;BME280;18038;50.166;18.908;2023-02-18T17:17:44;97305.72;;;6.56;83.37